createdAt,value
2019-05-05T00:01:45.104Z,49.20
2019-05-05T00:04:35.980Z,49.20
2019-05-05T00:07:04.442Z,49.30
2019-05-05T00:09:34.563Z,49.30
2019-05-05T00:12:19.771Z,48.90
2019-05-05T00:15:14.480Z,49.30
2019-05-05T00:17:45.006Z,49.30
2019-05-05T00:20:14.390Z,49.30
2019-05-05T00:22:41.609Z,49.40
2019-05-05T00:25:09.067Z,49.40
2019-05-05T00:27:36.473Z,49.40
2019-05-05T00:30:05.387Z,49.30
2019-05-05T00:32:34.832Z,49.50
2019-05-05T00:35:04.310Z,49.40
2019-05-05T00:37:31.618Z,49.50
2019-05-05T00:39:59.089Z,49.60
2019-05-05T00:42:26.399Z,49.50
2019-05-05T00:44:54.880Z,49.50
2019-05-05T00:47:51.131Z,49.60
2019-05-05T00:50:20.135Z,49.60
2019-05-05T00:52:47.512Z,49.70
2019-05-05T00:55:15.247Z,49.70
2019-05-05T00:57:42.920Z,49.70
2019-05-05T01:00:20.845Z,49.70
2019-05-05T01:02:49.571Z,49.70
2019-05-05T01:05:25.629Z,49.60
2019-05-05T01:07:54.743Z,49.70
2019-05-05T01:10:22.344Z,49.70
2019-05-05T01:12:49.809Z,49.70
2019-05-05T01:15:18.710Z,49.70
2019-05-05T01:17:46.231Z,49.70
2019-05-05T01:20:14.684Z,49.70
2019-05-05T01:22:42.343Z,49.60
2019-05-05T01:25:10.479Z,49.40
2019-05-05T01:27:37.941Z,49.40
2019-05-05T01:30:07.929Z,49.40
2019-05-05T01:32:39.298Z,49.40
2019-05-05T01:35:06.643Z,49.40
2019-05-05T01:37:39.952Z,50.10
2019-05-05T01:40:20.136Z,49.60
2019-05-05T01:42:47.563Z,49.70
2019-05-05T01:45:15.025Z,49.70
2019-05-05T01:47:42.470Z,49.70
2019-05-05T01:50:18.361Z,49.80
2019-05-05T01:52:39.195Z,49.80
2019-05-05T01:55:06.533Z,49.70
2019-05-05T01:57:34.455Z,49.70
2019-05-05T02:00:04.140Z,49.70
2019-05-05T02:02:31.448Z,49.70
2019-05-05T02:04:58.814Z,49.80
2019-05-05T02:07:26.173Z,49.60
2019-05-05T02:09:55.440Z,49.70
2019-05-05T02:12:24.678Z,49.60
2019-05-05T02:14:52.136Z,49.60
2019-05-05T02:17:19.635Z,49.70
2019-05-05T02:19:47.100Z,49.80
2019-05-05T02:22:14.787Z,49.70
2019-05-05T02:24:44.251Z,49.70
2019-05-05T02:27:11.797Z,49.70
2019-05-05T02:30:05.059Z,49.60
2019-05-05T02:32:49.293Z,49.70
2019-05-05T02:35:16.866Z,49.80
2019-05-05T02:37:45.668Z,49.70
2019-05-05T02:40:15.968Z,49.70
2019-05-05T02:42:45.784Z,49.60
2019-05-05T02:45:25.412Z,49.60
2019-05-05T02:48:09.727Z,49.60
2019-05-05T02:51:15.103Z,49.70
2019-05-05T02:53:45.487Z,49.70
2019-05-05T02:56:19.686Z,49.80
2019-05-05T02:58:48.959Z,49.80
2019-05-05T03:01:30.557Z,50.00
2019-05-05T03:03:59.221Z,50.00
2019-05-05T03:06:26.695Z,50.00
2019-05-05T03:08:56.115Z,49.90
2019-05-05T03:11:24.384Z,50.00
2019-05-05T03:13:54.099Z,50.00
2019-05-05T03:16:24.566Z,49.90
2019-05-05T03:18:54.357Z,49.90
2019-05-05T03:21:21.860Z,50.00
2019-05-05T03:23:49.665Z,50.00
2019-05-05T03:26:17.506Z,50.00
2019-05-05T03:28:49.161Z,49.90
2019-05-05T03:31:16.739Z,49.90
2019-05-05T03:33:45.929Z,49.90
2019-05-05T03:36:14.077Z,49.80
2019-05-05T03:38:41.918Z,49.90
2019-05-05T03:41:14.383Z,49.90
2019-05-05T03:44:01.923Z,49.80
2019-05-05T03:46:29.717Z,49.70
2019-05-05T03:48:57.307Z,49.80
2019-05-05T03:51:24.863Z,49.80
2019-05-05T03:53:53.533Z,50.00
2019-05-05T03:56:21.099Z,49.80
2019-05-05T03:58:49.408Z,49.70
2019-05-05T04:01:44.574Z,49.80
2019-05-05T04:04:25.210Z,49.80
2019-05-05T04:06:54.022Z,49.80
2019-05-05T04:09:21.795Z,49.80
2019-05-05T04:11:49.337Z,49.80
2019-05-05T04:14:18.383Z,49.80
2019-05-05T04:16:55.322Z,49.80
2019-05-05T04:19:23.738Z,49.90
2019-05-05T04:21:51.173Z,49.80
2019-05-05T04:24:18.515Z,49.90
2019-05-05T04:26:45.870Z,49.90
2019-05-05T04:29:13.931Z,49.90
2019-05-05T04:31:43.395Z,49.80
2019-05-05T04:34:10.778Z,49.70
2019-05-05T04:36:38.148Z,49.70
2019-05-05T04:39:06.251Z,49.70
2019-05-05T04:41:33.867Z,49.80
2019-05-05T04:44:01.415Z,49.80
2019-05-05T04:46:28.800Z,49.70
2019-05-05T04:49:06.911Z,49.80
2019-05-05T04:51:47.757Z,49.80
2019-05-05T04:54:37.350Z,49.80
2019-05-05T04:57:04.759Z,49.80
2019-05-05T04:59:33.997Z,49.80
2019-05-05T05:02:06.316Z,49.80
2019-05-05T05:04:48.136Z,49.90
2019-05-05T05:07:16.387Z,49.80
2019-05-05T05:09:43.746Z,49.60
2019-05-05T05:12:11.100Z,49.60
2019-05-05T05:14:38.517Z,49.60
2019-05-05T05:17:11.275Z,49.80
2019-05-05T05:19:38.768Z,49.80
2019-05-05T05:22:06.238Z,49.80
2019-05-05T05:24:34.307Z,49.80
2019-05-05T05:27:01.931Z,49.90
2019-05-05T05:29:29.412Z,49.80
2019-05-05T05:31:56.755Z,49.00
2019-05-05T05:34:24.214Z,49.80
2019-05-05T05:36:53.528Z,49.80
2019-05-05T05:39:29.912Z,50.20
2019-05-05T05:41:57.352Z,50.00
2019-05-05T05:44:44.531Z,50.10
2019-05-05T05:47:33.747Z,50.20
2019-05-05T05:50:11.201Z,50.10
2019-05-05T05:52:38.591Z,50.20
2019-05-05T05:55:06.090Z,50.30
2019-05-05T05:57:34.559Z,50.40
2019-05-05T06:00:03.970Z,50.20
2019-05-05T06:02:33.391Z,50.10
2019-05-05T06:05:00.852Z,50.00
2019-05-05T06:07:28.342Z,50.00
2019-05-05T06:09:57.230Z,49.90
2019-05-05T06:12:24.703Z,50.00
2019-05-05T06:14:54.879Z,49.90
2019-05-05T06:17:23.756Z,50.10
2019-05-05T06:19:54.076Z,49.90
2019-05-05T06:22:28.603Z,50.00
2019-05-05T06:24:50.851Z,49.80
2019-05-05T06:27:18.218Z,49.70
2019-05-05T06:29:45.674Z,49.50
2019-05-05T06:32:14.645Z,49.60
2019-05-05T06:34:44.115Z,49.50
2019-05-05T06:37:11.506Z,49.40
2019-05-05T06:39:38.930Z,49.40
2019-05-05T06:42:31.857Z,48.70
2019-05-05T06:45:04.272Z,49.30
2019-05-05T06:47:36.243Z,49.30
2019-05-05T06:50:04.189Z,49.10
2019-05-05T06:52:43.713Z,49.20
2019-05-05T06:55:03.632Z,49.10
2019-05-05T06:57:39.896Z,49.20
2019-05-05T07:00:10.669Z,49.20
2019-05-05T07:02:38.113Z,49.30
2019-05-05T07:05:09.977Z,49.30
2019-05-05T07:07:38.275Z,49.30
2019-05-05T07:10:05.714Z,49.20
2019-05-05T07:12:34.735Z,49.10
2019-05-05T07:15:04.244Z,49.50
2019-05-05T07:17:33.767Z,49.00
2019-05-05T07:20:01.289Z,49.00
2019-05-05T07:22:58.756Z,49.00
2019-05-05T07:25:17.776Z,49.00
2019-05-05T07:27:45.220Z,49.10
2019-05-05T07:30:13.717Z,49.00
2019-05-05T07:32:53.746Z,48.90
2019-05-05T07:35:53.409Z,48.90
2019-05-05T07:38:08.971Z,48.90
2019-05-05T07:40:55.999Z,48.90
2019-05-05T07:43:28.883Z,49.00
2019-05-05T07:45:56.334Z,49.00
2019-05-05T07:48:24.292Z,49.00
2019-05-05T07:50:59.747Z,48.70
2019-05-05T07:53:21.272Z,48.70
2019-05-05T07:55:48.750Z,48.60
2019-05-05T07:58:24.131Z,48.60
2019-05-05T08:00:51.391Z,48.70
2019-05-05T08:03:18.875Z,48.60
2019-05-05T08:05:46.419Z,48.60
2019-05-05T08:08:14.120Z,47.70
2019-05-05T08:10:43.568Z,48.90
2019-05-05T08:13:10.932Z,48.70
2019-05-05T08:15:53.850Z,48.70
2019-05-05T08:18:34.663Z,48.90
2019-05-05T08:21:04.827Z,48.90
2019-05-05T08:23:44.695Z,48.90
2019-05-05T08:26:33.676Z,48.90
2019-05-05T08:29:20.730Z,48.90
2019-05-05T08:31:53.701Z,48.80
2019-05-05T08:34:21.280Z,48.70
2019-05-05T08:36:48.710Z,48.60
2019-05-05T08:39:16.184Z,48.60
2019-05-05T08:41:50.637Z,48.60
2019-05-05T08:44:18.244Z,48.50
2019-05-05T08:46:45.869Z,48.40
2019-05-05T08:49:13.782Z,48.10
2019-05-05T08:51:41.240Z,47.90
2019-05-05T08:54:08.961Z,47.70
2019-05-05T08:56:44.782Z,47.50
2019-05-05T08:59:14.310Z,47.60
2019-05-05T09:01:41.772Z,47.40
2019-05-05T09:04:09.242Z,47.30
2019-05-05T09:06:37.847Z,47.30
2019-05-05T09:09:24.913Z,47.20
2019-05-05T09:11:55.628Z,47.30
2019-05-05T09:14:23.983Z,47.20
2019-05-05T09:16:53.620Z,47.20
2019-05-05T09:19:23.825Z,47.20
2019-05-05T09:21:51.205Z,47.30
2019-05-05T09:24:50.473Z,47.20
2019-05-05T09:27:28.783Z,47.20
2019-05-05T09:29:56.330Z,47.00
2019-05-05T09:32:24.319Z,47.10
2019-05-05T09:34:54.067Z,46.90
2019-05-05T09:37:21.587Z,46.70
2019-05-05T09:39:49.224Z,46.60
2019-05-05T09:42:16.643Z,46.40
2019-05-05T09:44:44.130Z,46.10
2019-05-05T09:47:13.474Z,46.20
2019-05-05T09:49:40.931Z,46.30
2019-05-05T09:52:08.553Z,46.30
2019-05-05T09:54:35.951Z,46.30
2019-05-05T09:57:04.510Z,46.10
2019-05-05T09:59:34.462Z,46.00
2019-05-05T10:02:01.629Z,45.70
2019-05-05T10:04:30.166Z,45.40
2019-05-05T10:06:57.646Z,45.00
2019-05-05T10:09:25.112Z,44.90
2019-05-05T10:11:54.029Z,45.00
2019-05-05T10:14:21.813Z,44.90
2019-05-05T10:16:49.200Z,44.80
2019-05-05T10:19:16.655Z,44.60
2019-05-05T10:21:44.510Z,44.40
2019-05-05T10:24:28.552Z,44.40
2019-05-05T10:26:48.453Z,44.30
2019-05-05T10:29:15.854Z,44.20
2019-05-05T10:31:43.758Z,44.30
2019-05-05T10:34:13.712Z,44.30
2019-05-05T10:36:44.166Z,44.50
2019-05-05T10:39:18.311Z,43.90
2019-05-05T10:41:45.809Z,44.60
2019-05-05T10:44:14.132Z,44.30
2019-05-05T10:46:43.042Z,44.20
2019-05-05T10:49:10.490Z,44.10
2019-05-05T10:51:39.966Z,43.70
2019-05-05T10:54:07.555Z,43.30
2019-05-05T10:56:35.040Z,43.00
2019-05-05T10:59:03.922Z,42.80
2019-05-05T11:01:31.706Z,42.60
2019-05-05T11:03:59.206Z,42.00
2019-05-05T11:06:26.774Z,41.70
2019-05-05T11:08:54.401Z,41.60
2019-05-05T11:11:23.461Z,41.60
2019-05-05T11:13:51.544Z,41.70
2019-05-05T11:16:19.056Z,41.80
2019-05-05T11:18:49.931Z,41.90
2019-05-05T11:21:17.288Z,42.00
2019-05-05T11:23:44.919Z,42.00
2019-05-05T11:26:14.322Z,41.90
2019-05-05T11:28:41.768Z,42.10
2019-05-05T11:31:09.281Z,42.30
2019-05-05T11:34:01.274Z,42.60
2019-05-05T11:36:48.170Z,42.80
2019-05-05T11:39:15.691Z,43.00
2019-05-05T11:41:44.072Z,43.00
2019-05-05T11:44:11.603Z,43.20
2019-05-05T11:46:39.030Z,43.40
2019-05-05T11:49:06.426Z,42.20
2019-05-05T11:51:34.265Z,43.70
2019-05-05T11:54:01.875Z,44.50
2019-05-05T11:56:29.388Z,43.90
2019-05-05T11:58:57.139Z,44.00
2019-05-05T12:01:25.403Z,44.20
2019-05-05T12:03:53.583Z,44.40
2019-05-05T12:06:21.240Z,44.60
2019-05-05T12:08:48.636Z,44.80
2019-05-05T12:11:16.069Z,45.20
2019-05-05T12:14:04.835Z,45.60
2019-05-05T12:16:34.491Z,45.90
2019-05-05T12:19:06.311Z,46.00
2019-05-05T12:21:33.885Z,46.00
2019-05-05T12:27:11.175Z,46.10
2019-05-05T12:29:44.705Z,46.00
2019-05-05T12:32:12.926Z,45.60
2019-05-05T12:34:41.368Z,45.40
2019-05-05T12:37:10.671Z,45.20
2019-05-05T12:39:38.146Z,45.10
2019-05-05T12:42:05.627Z,44.40
2019-05-05T12:44:38.431Z,44.50
2019-05-05T12:47:23.933Z,44.80
2019-05-05T12:49:51.365Z,44.70
2019-05-05T12:52:18.765Z,44.60
2019-05-05T12:54:46.149Z,44.50
2019-05-05T12:57:13.776Z,44.50
2019-05-05T12:59:41.346Z,44.10
2019-05-05T13:02:08.850Z,43.90
2019-05-05T13:04:36.295Z,43.70
2019-05-05T13:07:04.917Z,43.80
2019-05-05T13:09:33.557Z,43.80
2019-05-05T13:12:01.019Z,43.60
2019-05-05T13:14:33.555Z,43.50
2019-05-05T13:17:01.055Z,43.40
2019-05-05T13:19:40.923Z,43.60
2019-05-05T13:22:30.889Z,43.60
2019-05-05T13:25:10.355Z,43.30
2019-05-05T13:27:40.136Z,42.90
2019-05-05T13:30:07.931Z,42.70
2019-05-05T13:32:35.501Z,42.40
2019-05-05T13:35:04.115Z,42.30
2019-05-05T13:37:33.350Z,42.20
2019-05-05T13:40:04.371Z,42.10
2019-05-05T13:42:31.797Z,42.30
2019-05-05T13:45:24.630Z,42.20
2019-05-05T13:47:54.039Z,42.00
2019-05-05T13:50:28.550Z,42.10
2019-05-05T13:52:55.959Z,42.20
2019-05-05T13:55:24.130Z,42.40
2019-05-05T13:57:51.784Z,42.60
2019-05-05T14:00:19.558Z,42.80
2019-05-05T14:02:47.094Z,43.10
2019-05-05T14:05:14.580Z,43.30
2019-05-05T14:07:43.599Z,43.40
2019-05-05T14:10:11.354Z,43.50
2019-05-05T14:12:38.855Z,43.60
2019-05-05T14:15:08.375Z,43.80
2019-05-05T14:18:18.567Z,44.20
2019-05-05T14:20:46.094Z,44.40
2019-05-05T14:27:16.511Z,45.20
2019-05-05T14:37:34.058Z,45.70
2019-05-05T14:40:20.518Z,45.30
2019-05-05T14:42:47.888Z,45.70
2019-05-05T14:45:15.988Z,46.30
2019-05-05T14:47:44.178Z,45.80
2019-05-05T14:50:12.408Z,46.00
2019-05-05T14:52:39.808Z,46.20
2019-05-05T14:55:07.871Z,46.00
2019-05-05T14:57:35.362Z,46.60
2019-05-05T15:00:04.838Z,45.30
2019-05-05T15:02:34.559Z,45.30
2019-05-05T15:05:24.325Z,45.30
2019-05-05T15:07:59.610Z,45.00
2019-05-05T15:10:45.024Z,44.20
2019-05-05T15:13:14.735Z,44.50
2019-05-05T15:15:41.853Z,44.20
2019-05-05T15:18:09.342Z,44.10
2019-05-05T15:20:36.874Z,43.90
2019-05-05T15:23:04.740Z,42.10
2019-05-05T15:25:34.170Z,43.60
2019-05-05T15:28:04.850Z,43.10
2019-05-05T15:30:33.501Z,42.50
2019-05-05T15:33:01.455Z,43.40
2019-05-05T15:35:28.986Z,42.90
2019-05-05T15:37:56.431Z,42.70
2019-05-05T15:40:24.762Z,42.70
2019-05-05T15:42:57.761Z,42.80
2019-05-05T15:45:44.919Z,42.40
2019-05-05T15:48:14.000Z,42.20
2019-05-05T15:50:41.603Z,42.10
2019-05-05T15:53:09.127Z,42.20
2019-05-05T15:55:36.536Z,41.80
2019-05-05T15:58:03.917Z,42.00
2019-05-05T16:00:33.651Z,42.00
2019-05-05T16:03:01.212Z,42.20
2019-05-05T16:05:28.766Z,42.10
2019-05-05T16:07:56.270Z,42.30
2019-05-05T16:10:25.219Z,42.40
2019-05-05T16:12:53.940Z,42.10
2019-05-05T16:15:49.846Z,42.20
2019-05-05T16:19:01.941Z,42.20
2019-05-05T16:21:43.857Z,42.20
2019-05-05T16:24:19.621Z,42.30
2019-05-05T16:26:48.054Z,42.30
2019-05-05T16:29:15.409Z,42.40
2019-05-05T16:31:42.868Z,42.50
2019-05-05T16:34:10.322Z,42.70
2019-05-05T16:36:37.697Z,42.90
2019-05-05T16:39:05.943Z,42.90
2019-05-05T16:41:34.099Z,43.10
2019-05-05T16:44:01.953Z,43.10
2019-05-05T16:46:29.385Z,43.10
2019-05-05T16:48:56.807Z,43.10
2019-05-05T16:51:28.466Z,43.20
2019-05-05T16:53:57.694Z,43.30
2019-05-05T16:56:25.141Z,43.30
2019-05-05T16:58:52.510Z,43.20
2019-05-05T17:01:24.702Z,43.20
2019-05-05T17:04:17.456Z,43.00
2019-05-05T17:06:24.992Z,42.00
2019-05-05T17:09:19.922Z,42.60
2019-05-05T17:12:09.255Z,41.80
2019-05-05T17:18:54.080Z,42.00
2019-05-05T17:22:06.042Z,42.30
2019-05-05T17:25:01.295Z,40.10
2019-05-05T17:27:44.879Z,40.80
2019-05-05T17:30:00.912Z,41.70
2019-05-05T17:32:29.312Z,41.30
2019-05-05T17:35:24.024Z,41.00
2019-05-05T17:37:56.511Z,41.00
2019-05-05T17:41:13.852Z,41.00
2019-05-05T17:44:03.504Z,40.90
2019-05-05T17:46:47.158Z,41.00
2019-05-05T17:52:58.658Z,41.10
2019-05-05T17:55:34.110Z,40.90
2019-05-05T17:58:13.708Z,40.40
2019-05-05T18:03:44.004Z,41.30
2019-05-05T18:06:24.835Z,41.60
2019-05-05T18:09:14.538Z,41.40
2019-05-05T18:12:07.435Z,41.50
2019-05-05T18:14:35.358Z,41.80
2019-05-05T18:17:04.208Z,41.80
2019-05-05T18:19:50.917Z,41.90
2019-05-05T18:22:34.175Z,42.00
2019-05-05T18:27:49.703Z,43.00
2019-05-05T18:30:25.909Z,42.50
2019-05-05T18:32:53.481Z,42.80
2019-05-05T18:35:24.240Z,43.20
2019-05-05T18:37:51.705Z,43.40
2019-05-05T18:40:19.169Z,43.50
2019-05-05T18:42:46.704Z,43.70
2019-05-05T18:45:15.805Z,43.90
2019-05-05T18:47:43.430Z,43.90
2019-05-05T18:50:10.977Z,44.10
2019-05-05T18:52:38.386Z,44.20
2019-05-05T18:55:06.132Z,44.40
2019-05-05T18:57:34.148Z,44.40
2019-05-05T19:00:04.572Z,44.30
2019-05-05T19:02:44.393Z,44.40
2019-05-05T19:05:30.741Z,44.30
2019-05-05T19:15:14.528Z,44.80
2019-05-05T19:17:59.406Z,43.40
2019-05-05T19:20:36.231Z,44.30
2019-05-05T19:23:05.870Z,44.40
2019-05-05T19:25:35.516Z,44.70
2019-05-05T19:28:04.520Z,44.70
2019-05-05T19:30:35.786Z,44.90
2019-05-05T19:33:01.054Z,45.00
2019-05-05T19:35:40.156Z,45.00
2019-05-05T19:37:57.873Z,45.10
2019-05-05T19:40:26.470Z,45.00
2019-05-05T19:42:54.018Z,45.00
2019-05-05T19:45:21.441Z,44.80
2019-05-05T19:47:48.836Z,45.00
2019-05-05T19:50:26.859Z,45.00
2019-05-05T19:52:54.440Z,45.20
2019-05-05T19:55:22.028Z,45.20
2019-05-05T19:57:50.381Z,45.40
2019-05-05T20:00:18.816Z,45.30
2019-05-05T20:02:46.343Z,45.30
2019-05-05T20:05:15.597Z,45.30
2019-05-05T20:07:43.914Z,45.50
2019-05-05T20:10:11.943Z,45.70
2019-05-05T20:12:50.026Z,45.80
2019-05-05T20:15:51.355Z,45.50
2019-05-05T20:21:50.532Z,45.80
2019-05-05T20:24:24.028Z,46.10
2019-05-05T20:26:53.267Z,44.50
2019-05-05T20:29:20.973Z,46.70
2019-05-05T20:31:48.506Z,46.20
2019-05-05T20:34:26.646Z,46.20
2019-05-05T20:37:14.865Z,46.20
2019-05-05T20:39:43.897Z,46.20
2019-05-05T20:42:11.808Z,46.10
2019-05-05T20:44:39.331Z,46.10
2019-05-05T20:47:06.808Z,46.10
2019-05-05T20:49:34.663Z,46.20
2019-05-05T20:52:03.718Z,46.10
2019-05-05T20:54:31.390Z,46.10
2019-05-05T20:56:58.771Z,46.20
2019-05-05T20:59:30.668Z,46.20
2019-05-05T21:01:55.481Z,46.30
2019-05-05T21:04:24.610Z,46.60
2019-05-05T21:06:52.270Z,46.70
2019-05-05T21:09:20.023Z,46.80
2019-05-05T21:11:47.467Z,46.80
2019-05-05T21:14:14.956Z,46.90
2019-05-05T21:16:44.022Z,47.00
2019-05-05T21:19:13.959Z,47.10
2019-05-05T21:21:44.612Z,46.90
2019-05-05T21:24:12.242Z,46.80
2019-05-05T21:26:49.931Z,46.80
2019-05-05T21:29:17.513Z,46.90
2019-05-05T21:31:45.005Z,46.80
2019-05-05T21:34:13.982Z,46.80
2019-05-05T21:36:44.528Z,46.90
2019-05-05T21:39:11.513Z,46.80
2019-05-05T21:41:38.944Z,46.80
2019-05-05T21:44:06.481Z,46.90
2019-05-05T21:46:34.668Z,46.90
2019-05-05T21:49:03.961Z,47.10
2019-05-05T21:51:49.689Z,47.10
2019-05-05T21:57:34.416Z,46.50
2019-05-05T22:00:04.274Z,47.30
2019-05-05T22:02:31.294Z,47.20
2019-05-05T22:04:58.843Z,47.20
2019-05-05T22:07:26.353Z,47.20
2019-05-05T22:09:54.494Z,47.20
2019-05-05T22:12:24.142Z,47.20
2019-05-05T22:14:51.438Z,47.10
2019-05-05T22:20:04.247Z,48.20
2019-05-05T22:22:36.346Z,47.10
2019-05-05T22:25:03.695Z,47.10
2019-05-05T22:27:31.144Z,47.10
2019-05-05T22:30:09.389Z,47.10
2019-05-05T22:32:27.801Z,47.10
2019-05-05T22:34:55.156Z,47.10
2019-05-05T22:37:23.626Z,47.10
2019-05-05T22:39:51.361Z,47.00
2019-05-05T22:42:18.929Z,47.00
2019-05-05T22:44:46.424Z,46.90
2019-05-05T22:47:13.999Z,46.90
2019-05-05T22:49:41.460Z,46.80
2019-05-05T22:52:08.851Z,46.90
2019-05-05T22:54:36.349Z,46.80
2019-05-05T22:57:04.596Z,46.90
2019-05-05T22:59:32.161Z,46.90
2019-05-05T23:01:59.576Z,47.20
2019-05-05T23:04:38.928Z,46.90
2019-05-05T23:07:11.224Z,46.80
2019-05-05T23:09:38.729Z,46.80
2019-05-05T23:12:06.233Z,46.90
2019-05-05T23:14:34.264Z,46.90
2019-05-05T23:19:53.432Z,47.00
2019-05-05T23:22:34.825Z,47.00
2019-05-05T23:25:09.426Z,47.10
2019-05-05T23:27:56.376Z,47.10
2019-05-05T23:30:37.844Z,47.10
2019-05-05T23:32:54.873Z,47.10
2019-05-05T23:35:23.943Z,47.10
2019-05-05T23:37:51.645Z,47.10
2019-05-05T23:40:25.327Z,47.20
2019-05-05T23:42:54.062Z,47.20
2019-05-05T23:45:22.074Z,47.20
2019-05-05T23:47:49.550Z,47.90
2019-05-05T23:50:16.983Z,46.80
2019-05-05T23:52:44.484Z,46.60
2019-05-05T23:55:14.237Z,47.50
2019-05-05T23:57:43.628Z,47.60
